Time;durP1;ratioP1;P1;durP2;ratioP2;P2;SDS_P1;SDS_P2;PMS_P1;PMS_P2;Temp;Humidity;BMP_temperature;BMP_pressure;BME280_temperature;BME280_humidity;BME280_pressure;Samples;Min_cycle;Max_cycle;Signal;HPM_P1;HPM_P2
2023/02/01 00:00:30;;;;;;;5.53;2.10;;;;;;;;;;5108771;28;20043;-76
2023/02/01 00:03:00;;;;;;;6.85;2.20;;;;;;;;;;5107616;28;20605;-77
2023/02/01 00:05:31;;;;;;;5.28;2.22;;;;;;;;;;5108653;28;20067;-77
2023/02/01 00:08:02;;;;;;;8.25;2.38;;;;;;;;;;5108704;28;20047;-77
2023/02/01 00:10:33;;;;;;;5.10;2.20;;;;;;;;;;5108337;28;20044;-76
2023/02/01 00:13:03;;;;;;;3.72;2.13;;;;;;;;;;5113494;27;20035;-78
2023/02/01 00:15:34;;;;;;;4.18;2.17;;;;;;;;;;5115827;27;20035;-76
2023/02/01 00:18:07;;;;;;;5.97;2.17;;;;;;;;;;5117302;27;20043;-77
2023/02/01 00:20:37;;;;;;;5.88;2.38;;;;;;;;;;5118286;27;20039;-77
2023/02/01 00:23:09;;;;;;;5.47;2.28;;;;;;;;;;5106259;27;20048;-77
2023/02/01 00:25:39;;;;;;;5.93;2.20;;;;;;;;;;5108333;28;20040;-76
2023/02/01 00:28:10;;;;;;;3.42;2.15;;;;;;;;;;5107549;28;20405;-77
2023/02/01 00:30:42;;;;;;;5.70;2.35;;;;;;;;;;5108042;28;20048;-76
2023/02/01 00:33:12;;;;;;;7.57;2.15;;;;;;;;;;5108063;28;20040;-75
2023/02/01 00:35:42;;;;;;;4.00;2.03;;;;;;;;;;5107968;28;20055;-75
2023/02/01 00:38:12;;;;;;;5.05;2.42;;;;;;;;;;5107838;28;20051;-76
2023/02/01 00:40:43;;;;;;;2.95;2.08;;;;;;;;;;5106035;28;20425;-75
2023/02/01 00:43:15;;;;;;;5.88;2.35;;;;;;;;;;5106474;28;20043;-75
2023/02/01 00:45:49;;;;;;;4.78;2.03;;;;;;;;;;5106265;28;20043;-75
2023/02/01 00:48:19;;;;;;;4.90;2.50;;;;;;;;;;5105327;28;20405;-76
2023/02/01 00:50:50;;;;;;;4.50;2.60;;;;;;;;;;5121195;27;20043;-76
2023/02/01 00:53:20;;;;;;;8.43;2.60;;;;;;;;;;5128661;27;20413;-75
2023/02/01 00:55:52;;;;;;;5.47;2.53;;;;;;;;;;5128189;27;20050;-76
2023/02/01 00:58:23;;;;;;;6.63;2.50;;;;;;;;;;5125209;27;20112;-76
2023/02/01 01:01:10;;;;;;;3.70;2.20;;;;;;;;;;5125834;27;20059;-75
2023/02/01 01:03:44;;;;;;;5.50;2.33;;;;;;;;;;5125146;27;20051;-75
2023/02/01 01:06:17;;;;;;;4.50;2.47;;;;;;;;;;5126729;27;20557;-75
2023/02/01 01:08:48;;;;;;;3.60;2.33;;;;;;;;;;5126409;27;20176;-75
2023/02/01 01:11:22;;;;;;;4.80;2.28;;;;;;;;;;5127727;27;20043;-75
2023/02/01 01:13:54;;;;;;;4.55;2.25;;;;;;;;;;5126665;27;20050;-75
2023/02/01 01:16:29;;;;;;;7.20;2.53;;;;;;;;;;5127140;27;20063;-75
2023/02/01 01:19:00;;;;;;;6.15;2.90;;;;;;;;;;5125397;27;20055;-75
2023/02/01 01:21:33;;;;;;;4.78;2.50;;;;;;;;;;5118734;27;20367;-75
2023/02/01 01:24:04;;;;;;;5.07;2.47;;;;;;;;;;5114889;27;20051;-76
2023/02/01 01:26:35;;;;;;;5.80;2.58;;;;;;;;;;5114106;27;20051;-75
2023/02/01 01:29:05;;;;;;;6.75;2.88;;;;;;;;;;5115618;27;20605;-74
2023/02/01 01:31:35;;;;;;;5.22;2.55;;;;;;;;;;5114826;27;20054;-75
2023/02/01 01:34:06;;;;;;;6.28;2.53;;;;;;;;;;5117843;27;20054;-75
2023/02/01 01:36:37;;;;;;;4.45;2.63;;;;;;;;;;5115532;27;20055;-75
2023/02/01 01:39:09;;;;;;;3.78;2.55;;;;;;;;;;5115130;27;20553;-75
2023/02/01 01:41:38;;;;;;;6.00;2.60;;;;;;;;;;5114657;28;20059;-76
2023/02/01 01:45:14;;;;;;;5.60;2.47;;;;;;;;;;5113377;27;20840;-75
2023/02/01 01:47:49;;;;;;;;;;;;;;;;;;5034603;28;20042;-75
2023/02/01 01:50:28;;;;;;;9.07;2.78;;;;;;;;;;5099455;28;19927;-75
2023/02/01 01:53:03;;;;;;;6.15;2.75;;;;;;;;;;5115811;28;20813;-78
2023/02/01 01:55:39;;;;;;;6.50;2.97;;;;;;;;;;5112008;28;20070;-75
2023/02/01 01:58:17;;;;;;;13.35;3.03;;;;;;;;;;5114157;28;20047;-74
2023/02/01 02:00:48;;;;;;;5.13;2.25;;;;;;;;;;5113402;28;20047;-75
2023/02/01 02:03:30;;;;;;;7.93;3.28;;;;;;;;;;5121930;28;20047;-75
2023/02/01 02:06:04;;;;;;;5.72;2.88;;;;;;;;;;5127363;28;20051;-75
2023/02/01 02:08:35;;;;;;;6.13;3.08;;;;;;;;;;5125003;28;20398;-75
2023/02/01 02:11:10;;;;;;;5.45;3.05;;;;;;;;;;5126541;27;20047;-75
2023/02/01 02:13:43;;;;;;;5.03;2.80;;;;;;;;;;5131460;27;20043;-75
2023/02/01 02:16:40;;;;;;;4.82;2.78;;;;;;;;;;5131376;27;20502;-75
2023/02/01 02:19:22;;;;;;;4.40;2.63;;;;;;;;;;5130967;27;20498;-75
2023/02/01 02:22:19;;;;;;;6.43;3.13;;;;;;;;;;5131376;27;20047;-76
2023/02/01 02:25:07;;;;;;;9.65;3.08;;;;;;;;;;5129304;27;20051;-75
2023/02/01 02:28:27;;;;;;;5.03;2.90;;;;;;;;;;5123007;27;20035;-75
2023/02/01 02:31:13;;;;;;;6.85;3.30;;;;;;;;;;5117294;27;20050;-75
2023/02/01 02:34:10;;;;;;;4.40;2.75;;;;;;;;;;5118992;27;20039;-75
2023/02/01 02:37:10;;;;;;;7.80;3.17;;;;;;;;;;5112015;27;20059;-75
2023/02/01 02:39:47;;;;;;;12.05;3.33;;;;;;;;;;5107770;28;20415;-75
2023/02/01 02:49:15;;;;;;;5.05;3.08;;;;;;;;;;5108173;28;20044;-75
2023/02/01 02:54:51;;;;;;;5.82;3.17;;;;;;;;;;5108171;28;20059;-75
2023/02/01 03:05:59;;;;;;;5.97;3.60;;;;;;;;;;5108200;28;20045;-75
2023/02/01 03:08:31;;;;;;;6.18;3.30;;;;;;;;;;5108369;28;20639;-75
2023/02/01 03:11:11;;;;;;;4.75;3.08;;;;;;;;;;5108129;28;20051;-75
2023/02/01 03:13:55;;;;;;;5.00;3.00;;;;;;;;;;5109464;28;20047;-75
2023/02/01 03:16:52;;;;;;;5.15;3.42;;;;;;;;;;5107405;28;20059;-74
2023/02/01 03:19:27;;;;;;;5.65;3.42;;;;;;;;;;5109739;28;20056;-75
2023/02/01 03:22:05;;;;;;;4.72;3.40;;;;;;;;;;5106346;28;20058;-75
2023/02/01 03:24:40;;;;;;;8.07;3.38;;;;;;;;;;5109422;28;20043;-74
2023/02/01 03:27:11;;;;;;;11.45;3.70;;;;;;;;;;5109719;28;20383;-75
2023/02/01 03:29:53;;;;;;;4.80;3.20;;;;;;;;;;5107785;28;20065;-75
2023/02/01 03:32:24;;;;;;;6.38;3.13;;;;;;;;;;5106917;28;20066;-75
2023/02/01 03:34:57;;;;;;;7.78;3.35;;;;;;;;;;5109502;28;20062;-75
2023/02/01 03:37:28;;;;;;;12.52;3.60;;;;;;;;;;5106949;28;20071;-75
2023/02/01 03:40:03;;;;;;;7.20;3.33;;;;;;;;;;5107402;28;20044;-75
2023/02/01 03:42:48;;;;;;;8.13;3.42;;;;;;;;;;5107173;28;20644;-75
2023/02/01 03:45:25;;;;;;;4.88;3.35;;;;;;;;;;5107106;28;20074;-75
2023/02/01 03:48:00;;;;;;;7.00;3.65;;;;;;;;;;5107406;28;20051;-75
2023/02/01 03:50:33;;;;;;;7.03;3.45;;;;;;;;;;5109149;28;20050;-74
2023/02/01 03:53:11;;;;;;;9.55;3.95;;;;;;;;;;5107177;28;20051;-74
2023/02/01 03:55:43;;;;;;;7.85;4.00;;;;;;;;;;5107105;28;20506;-75
2023/02/01 03:58:19;;;;;;;7.53;3.80;;;;;;;;;;5106968;28;20059;-75
2023/02/01 04:01:00;;;;;;;5.22;3.30;;;;;;;;;;5108790;28;20040;-75
2023/02/01 04:03:33;;;;;;;4.30;3.28;;;;;;;;;;5106540;28;20059;-75
2023/02/01 04:06:04;;;;;;;6.65;3.83;;;;;;;;;;5089941;28;20055;-75
2023/02/01 04:08:34;;;;;;;5.45;3.45;;;;;;;;;;5106774;28;20518;-75
2023/02/01 04:11:05;;;;;;;8.32;4.10;;;;;;;;;;5109024;28;20048;-75
2023/02/01 04:13:35;;;;;;;6.38;3.83;;;;;;;;;;5109227;28;20047;-77
2023/02/01 04:16:06;;;;;;;6.50;3.80;;;;;;;;;;5108617;28;20048;-75
2023/02/01 04:18:38;;;;;;;9.13;3.42;;;;;;;;;;5107933;28;20786;-75
2023/02/01 04:21:09;;;;;;;10.90;3.92;;;;;;;;;;5106808;28;20516;-75
2023/02/01 04:23:38;;;;;;;7.80;3.70;;;;;;;;;;5108580;28;20055;-74
2023/02/01 04:26:09;;;;;;;10.60;4.32;;;;;;;;;;5108075;28;20039;-75
2023/02/01 04:28:40;;;;;;;8.18;4.35;;;;;;;;;;5106406;28;20056;-75
2023/02/01 04:31:10;;;;;;;10.95;4.07;;;;;;;;;;5108474;28;20428;-75
2023/02/01 04:33:42;;;;;;;7.63;3.72;;;;;;;;;;5107381;28;20028;-75
2023/02/01 04:36:12;;;;;;;9.27;3.92;;;;;;;;;;5108707;28;20043;-75
2023/02/01 04:38:43;;;;;;;7.85;3.75;;;;;;;;;;5107934;28;20055;-75
2023/02/01 04:41:15;;;;;;;5.65;4.03;;;;;;;;;;5107773;28;20490;-75
2023/02/01 04:43:51;;;;;;;16.08;4.07;;;;;;;;;;5107633;28;20047;-75
2023/02/01 04:46:22;;;;;;;14.70;3.95;;;;;;;;;;5107623;28;20043;-75
2023/02/01 04:48:54;;;;;;;6.50;4.45;;;;;;;;;;5106200;28;20055;-75
2023/02/01 04:51:24;;;;;;;6.82;3.75;;;;;;;;;;5107574;28;20040;-75
2023/02/01 04:53:55;;;;;;;9.95;4.18;;;;;;;;;;5107905;28;20834;-75
2023/02/01 04:56:25;;;;;;;17.08;4.07;;;;;;;;;;5107691;28;20809;-75
2023/02/01 04:58:56;;;;;;;6.78;3.80;;;;;;;;;;5107801;28;20048;-75
2023/02/01 05:01:26;;;;;;;5.75;3.63;;;;;;;;;;5105844;28;20047;-75
2023/02/01 05:03:57;;;;;;;8.18;3.70;;;;;;;;;;5107431;28;20051;-75
2023/02/01 05:06:27;;;;;;;9.38;4.05;;;;;;;;;;5107231;28;20040;-75
2023/02/01 05:08:59;;;;;;;8.35;3.75;;;;;;;;;;5106936;28;20039;-75
2023/02/01 05:14:18;;;;;;;7.22;3.90;;;;;;;;;;5107429;28;20070;-75
2023/02/01 05:16:48;;;;;;;9.40;3.65;;;;;;;;;;5107065;28;20052;-75
2023/02/01 05:19:19;;;;;;;12.18;4.07;;;;;;;;;;5107215;28;20059;-75
2023/02/01 05:21:51;;;;;;;8.32;3.97;;;;;;;;;;5107320;28;20043;-75
2023/02/01 05:24:23;;;;;;;8.05;3.78;;;;;;;;;;5106617;28;20134;-75
2023/02/01 05:26:53;;;;;;;10.57;4.10;;;;;;;;;;5107045;28;20528;-75
2023/02/01 05:29:23;;;;;;;7.55;4.00;;;;;;;;;;5107020;28;20058;-75
2023/02/01 05:31:54;;;;;;;6.47;3.38;;;;;;;;;;5106857;28;20058;-76
2023/02/01 05:34:34;;;;;;;6.78;3.72;;;;;;;;;;5106826;28;20040;-74
2023/02/01 05:37:05;;;;;;;6.32;3.33;;;;;;;;;;5106037;28;20058;-74
2023/02/01 05:39:34;;;;;;;10.55;3.78;;;;;;;;;;5106629;28;20051;-74
2023/02/01 05:42:04;;;;;;;7.63;3.55;;;;;;;;;;5107623;28;20044;-74
2023/02/01 05:44:34;;;;;;;8.57;3.70;;;;;;;;;;5106241;28;20503;-74
2023/02/01 05:47:07;;;;;;;5.28;3.45;;;;;;;;;;5107172;28;20040;-75
2023/02/01 05:49:37;;;;;;;9.68;3.75;;;;;;;;;;5107150;28;20039;-74
2023/02/01 05:52:08;;;;;;;7.68;3.60;;;;;;;;;;5107222;28;20483;-74
2023/02/01 05:54:38;;;;;;;7.82;3.60;;;;;;;;;;5106847;28;20051;-74
2023/02/01 05:57:08;;;;;;;6.25;3.40;;;;;;;;;;5106817;28;20040;-74
2023/02/01 05:59:40;;;;;;;6.78;3.80;;;;;;;;;;5106806;28;20044;-74
2023/02/01 06:02:12;;;;;;;5.28;3.55;;;;;;;;;;5106568;28;20367;-74
2023/02/01 06:04:42;;;;;;;6.97;3.90;;;;;;;;;;5106536;28;20401;-74
2023/02/01 06:07:12;;;;;;;7.35;4.22;;;;;;;;;;5106840;28;20044;-74
2023/02/01 06:09:42;;;;;;;7.53;3.58;;;;;;;;;;5106287;28;20051;-74
2023/02/01 06:12:17;;;;;;;16.67;4.32;;;;;;;;;;5106472;28;20046;-74
2023/02/01 06:14:48;;;;;;;9.82;4.05;;;;;;;;;;5106609;28;20061;-74
2023/02/01 06:17:19;;;;;;;8.43;3.78;;;;;;;;;;5104610;28;20494;-74
2023/02/01 06:19:49;;;;;;;8.20;3.70;;;;;;;;;;5106221;28;20395;-74
2023/02/01 06:22:22;;;;;;;5.05;3.72;;;;;;;;;;5104466;28;20518;-74
2023/02/01 06:24:53;;;;;;;11.90;3.55;;;;;;;;;;5106487;28;20048;-74
2023/02/01 06:27:23;;;;;;;12.60;3.88;;;;;;;;;;5107087;28;20035;-74
2023/02/01 06:29:54;;;;;;;8.50;3.90;;;;;;;;;;5106926;28;20055;-75
2023/02/01 06:32:26;;;;;;;5.20;3.60;;;;;;;;;;5104812;28;20059;-75
2023/02/01 06:34:57;;;;;;;6.78;3.50;;;;;;;;;;5105203;28;20066;-75
2023/02/01 06:37:29;;;;;;;8.43;3.78;;;;;;;;;;5106597;28;20565;-75
2023/02/01 06:39:59;;;;;;;5.63;3.95;;;;;;;;;;5106172;28;20399;-75
2023/02/01 06:42:30;;;;;;;7.63;3.45;;;;;;;;;;5106718;28;20494;-75
2023/02/01 06:45:00;;;;;;;13.95;4.53;;;;;;;;;;5106044;28;20069;-75
2023/02/01 06:47:30;;;;;;;9.27;4.32;;;;;;;;;;5106795;28;20386;-75
2023/02/01 06:50:00;;;;;;;11.80;4.15;;;;;;;;;;5106800;28;20054;-75
2023/02/01 06:52:32;;;;;;;8.65;4.20;;;;;;;;;;5104614;28;20051;-75
2023/02/01 06:55:03;;;;;;;7.43;3.72;;;;;;;;;;5106524;28;20048;-75
2023/02/01 06:57:35;;;;;;;8.15;4.18;;;;;;;;;;5107996;28;20494;-75
2023/02/01 07:00:06;;;;;;;10.15;3.95;;;;;;;;;;5109907;28;20039;-75
2023/02/01 07:02:38;;;;;;;6.97;3.58;;;;;;;;;;5109404;28;20043;-75
2023/02/01 07:05:09;;;;;;;8.40;4.20;;;;;;;;;;5109651;28;20048;-75
2023/02/01 07:07:39;;;;;;;5.47;3.60;;;;;;;;;;5109588;28;20048;-75
2023/02/01 07:10:10;;;;;;;7.32;4.13;;;;;;;;;;5109865;28;20056;-75
2023/02/01 07:12:40;;;;;;;6.72;4.03;;;;;;;;;;5109627;28;20044;-75
2023/02/01 07:15:11;;;;;;;8.32;3.70;;;;;;;;;;5107186;28;20869;-75
2023/02/01 07:17:42;;;;;;;6.90;4.07;;;;;;;;;;5108489;28;20043;-75
2023/02/01 07:20:12;;;;;;;7.07;4.78;;;;;;;;;;5109647;28;20426;-75
2023/02/01 07:22:42;;;;;;;7.97;4.00;;;;;;;;;;5109240;28;20524;-75
2023/02/01 07:25:13;;;;;;;6.03;3.83;;;;;;;;;;5110205;28;20054;-75
2023/02/01 07:27:46;;;;;;;7.03;3.83;;;;;;;;;;5109592;28;20506;-75
2023/02/01 07:30:18;;;;;;;7.13;4.25;;;;;;;;;;5109372;28;20044;-75
2023/02/01 07:32:48;;;;;;;7.30;4.10;;;;;;;;;;5109074;28;20529;-75
2023/02/01 07:35:18;;;;;;;4.88;3.30;;;;;;;;;;5109420;28;20044;-75
2023/02/01 07:37:49;;;;;;;6.85;4.55;;;;;;;;;;5109040;28;20044;-75
2023/02/01 07:40:28;;;;;;;6.72;4.18;;;;;;;;;;5108784;28;20051;-75
2023/02/01 07:42:59;;;;;;;13.20;4.40;;;;;;;;;;5109557;28;20501;-75
2023/02/01 07:45:30;;;;;;;14.32;4.72;;;;;;;;;;5109367;28;20059;-75
2023/02/01 07:48:03;;;;;;;7.60;4.68;;;;;;;;;;5108779;28;20040;-75
2023/02/01 07:50:35;;;;;;;8.40;5.03;;;;;;;;;;5107208;28;20059;-75
2023/02/01 07:53:06;;;;;;;12.70;5.22;;;;;;;;;;5109021;28;20039;-75
2023/02/01 07:55:38;;;;;;;7.60;4.32;;;;;;;;;;5108351;28;20055;-75
2023/02/01 07:58:09;;;;;;;7.75;4.75;;;;;;;;;;5108895;28;20489;-75
2023/02/01 08:03:29;;;;;;;14.23;5.22;;;;;;;;;;5106025;28;20059;-75
2023/02/01 08:05:59;;;;;;;10.63;5.15;;;;;;;;;;5109147;28;20673;-74
2023/02/01 08:08:29;;;;;;;11.88;5.70;;;;;;;;;;5107659;28;20046;-75
2023/02/01 08:11:04;;;;;;;8.30;5.55;;;;;;;;;;5108276;28;20051;-75
2023/02/01 08:13:37;;;;;;;8.20;4.28;;;;;;;;;;5108673;28;20051;-75
2023/02/01 08:16:09;;;;;;;7.35;4.05;;;;;;;;;;5108754;28;20494;-74
2023/02/01 08:18:41;;;;;;;9.18;4.28;;;;;;;;;;5109043;28;20051;-74
2023/02/01 08:21:22;;;;;;;7.68;4.20;;;;;;;;;;5108364;28;20056;-76
2023/02/01 08:23:53;;;;;;;11.63;4.45;;;;;;;;;;5107843;28;20502;-74
2023/02/01 08:26:26;;;;;;;8.13;4.13;;;;;;;;;;5106324;28;20489;-74
2023/02/01 08:29:00;;;;;;;6.22;3.90;;;;;;;;;;5107269;28;20032;-74
2023/02/01 08:31:32;;;;;;;7.70;3.95;;;;;;;;;;5108448;28;20434;-74
2023/02/01 08:34:12;;;;;;;10.10;4.63;;;;;;;;;;5107792;28;20498;-74
2023/02/01 08:36:43;;;;;;;5.88;3.95;;;;;;;;;;5108442;28;20047;-76
2023/02/01 08:39:14;;;;;;;6.40;3.95;;;;;;;;;;5107523;28;20062;-75
2023/02/01 08:42:50;;;;;;;11.95;4.60;;;;;;;;;;5108362;28;20055;-76
2023/02/01 08:44:38;;;;;;;8.30;4.25;;;;;;;;;;5107810;28;20047;-75
2023/02/01 08:47:08;;;;;;;10.25;4.55;;;;;;;;;;5107672;28;20520;-76
2023/02/01 08:49:38;;;;;;;6.03;4.68;;;;;;;;;;5107755;28;20054;-75
2023/02/01 08:52:09;;;;;;;5.65;4.53;;;;;;;;;;5107849;28;20043;-76
2023/02/01 08:54:44;;;;;;;7.28;4.43;;;;;;;;;;5106528;28;20398;-76
2023/02/01 08:57:15;;;;;;;9.05;4.60;;;;;;;;;;5108065;28;20052;-76
2023/02/01 08:59:45;;;;;;;8.73;4.78;;;;;;;;;;5107310;28;20048;-76
2023/02/01 09:02:17;;;;;;;7.28;4.50;;;;;;;;;;5108344;28;20054;-77
2023/02/01 09:04:49;;;;;;;12.77;4.95;;;;;;;;;;5106896;28;20036;-75
2023/02/01 09:07:20;;;;;;;9.27;4.68;;;;;;;;;;5107460;28;20043;-76
2023/02/01 09:09:51;;;;;;;9.18;4.95;;;;;;;;;;5107368;28;20047;-75
2023/02/01 09:12:21;;;;;;;9.90;5.60;;;;;;;;;;5107891;28;20047;-76
2023/02/01 09:14:51;;;;;;;9.27;5.22;;;;;;;;;;5107537;28;20063;-76
2023/02/01 09:17:21;;;;;;;7.35;4.75;;;;;;;;;;5107754;28;20052;-76
2023/02/01 09:19:52;;;;;;;7.47;5.18;;;;;;;;;;5106098;28;20521;-76
2023/02/01 09:22:22;;;;;;;8.50;5.32;;;;;;;;;;5107009;28;20525;-76
2023/02/01 09:24:53;;;;;;;12.90;4.95;;;;;;;;;;5108086;28;20047;-75
2023/02/01 09:27:25;;;;;;;7.93;5.43;;;;;;;;;;5107431;28;20043;-76
2023/02/01 09:29:56;;;;;;;9.60;5.53;;;;;;;;;;5105705;28;20376;-76
2023/02/01 09:32:27;;;;;;;7.38;5.25;;;;;;;;;;5106824;28;20040;-75
2023/02/01 09:34:58;;;;;;;7.25;5.22;;;;;;;;;;5107008;28;20043;-76
2023/02/01 09:37:28;;;;;;;10.30;5.43;;;;;;;;;;5105237;28;20070;-75
2023/02/01 09:39:59;;;;;;;7.88;5.15;;;;;;;;;;5106929;28;20055;-80
2023/02/01 09:43:06;;;;;;;11.13;5.97;;;;;;;;;;5104715;28;20055;-79
2023/02/01 09:46:19;;;;;;;22.00;6.50;;;;;;;;;;5098725;28;20521;-76
2023/02/01 09:48:54;;;;;;;9.15;5.70;;;;;;;;;;5107091;28;20043;-74
2023/02/01 09:51:43;;;;;;;9.73;5.03;;;;;;;;;;5107428;28;20523;-75
2023/02/01 09:54:17;;;;;;;14.25;5.20;;;;;;;;;;5107016;28;20043;-76
2023/02/01 09:57:04;;;;;;;10.15;5.35;;;;;;;;;;5106873;28;20709;-75
2023/02/01 09:59:46;;;;;;;9.98;4.85;;;;;;;;;;5106741;28;20042;-76
2023/02/01 10:02:23;;;;;;;12.32;6.03;;;;;;;;;;5106517;28;20050;-76
2023/02/01 10:05:00;;;;;;;14.43;5.53;;;;;;;;;;5106964;28;20048;-78
2023/02/01 10:07:43;;;;;;;14.18;4.88;;;;;;;;;;5106812;28;20039;-77
2023/02/01 10:10:42;;;;;;;9.13;5.03;;;;;;;;;;5107120;28;20036;-76
2023/02/01 10:13:13;;;;;;;7.93;4.78;;;;;;;;;;5104656;28;20047;-74
2023/02/01 10:16:03;;;;;;;13.90;5.70;;;;;;;;;;5106788;28;20504;-74
2023/02/01 10:18:43;;;;;;;13.30;5.25;;;;;;;;;;5106785;28;20055;-74
2023/02/01 10:21:50;;;;;;;10.77;4.43;;;;;;;;;;5105372;28;20058;-75
2023/02/01 10:24:32;;;;;;;9.70;4.38;;;;;;;;;;5094756;27;20813;-78
2023/02/01 10:27:14;;;;;;;6.60;4.13;;;;;;;;;;5111501;28;20039;-76
2023/02/01 10:29:51;;;;;;;7.00;3.70;;;;;;;;;;5127111;28;20401;-77
2023/02/01 10:32:27;;;;;;;7.30;3.60;;;;;;;;;;5128821;27;20082;-77
2023/02/01 10:35:02;;;;;;;4.88;3.33;;;;;;;;;;5129671;27;20043;-76
2023/02/01 10:37:34;;;;;;;6.80;3.78;;;;;;;;;;5130771;27;20547;-76
2023/02/01 10:40:19;;;;;;;6.93;3.10;;;;;;;;;;5130274;27;20054;-76
2023/02/01 10:43:02;;;;;;;6.82;2.75;;;;;;;;;;5127537;27;20035;-76
2023/02/01 10:45:34;;;;;;;3.90;2.88;;;;;;;;;;5130764;27;20043;-76
2023/02/01 10:48:05;;;;;;;5.70;2.67;;;;;;;;;;5130082;27;20047;-77
2023/02/01 10:51:21;;;;;;;7.32;3.15;;;;;;;;;;5130674;27;20344;-76
2023/02/01 10:54:20;;;;;;;6.57;3.10;;;;;;;;;;5094462;27;20074;-76
2023/02/01 10:56:53;;;;;;;6.80;2.30;;;;;;;;;;5124869;27;20070;-77
2023/02/01 10:59:28;;;;;;;4.38;2.60;;;;;;;;;;5115161;27;20039;-77
2023/02/01 11:02:16;;;;;;;6.43;2.42;;;;;;;;;;5107593;28;20051;-81
2023/02/01 11:04:47;;;;;;;8.13;2.40;;;;;;;;;;5109869;28;20043;-76
2023/02/01 11:07:26;;;;;;;8.20;2.58;;;;;;;;;;5107847;28;20043;-80
2023/02/01 11:09:57;;;;;;;11.07;2.88;;;;;;;;;;5114611;27;20067;-76
2023/02/01 11:12:33;;;;;;;7.07;2.03;;;;;;;;;;5115234;27;20883;-77
2023/02/01 11:15:23;;;;;;;8.57;2.35;;;;;;;;;;5108172;28;20387;-77
2023/02/01 11:17:56;;;;;;;8.27;2.13;;;;;;;;;;5109454;28;20047;-76
2023/02/01 11:20:32;;;;;;;3.78;2.33;;;;;;;;;;5109282;28;20056;-76
2023/02/01 11:23:04;;;;;;;7.22;2.13;;;;;;;;;;5108460;28;20059;-76
2023/02/01 11:25:36;;;;;;;12.75;3.10;;;;;;;;;;5088584;28;20052;-76
2023/02/01 11:28:09;;;;;;;6.45;2.63;;;;;;;;;;5105650;27;20043;-76
2023/02/01 11:30:44;;;;;;;12.60;2.85;;;;;;;;;;5115161;27;20415;-81
2023/02/01 11:33:29;;;;;;;8.23;2.22;;;;;;;;;;5108272;28;20055;-78
2023/02/01 11:36:20;;;;;;;5.88;2.65;;;;;;;;;;5109332;28;20585;-76
2023/02/01 11:39:13;;;;;;;9.13;2.38;;;;;;;;;;5109206;28;20051;-77
2023/02/01 11:42:24;;;;;;;4.75;2.70;;;;;;;;;;5109638;28;20059;-75
2023/02/01 11:45:16;;;;;;;6.10;2.90;;;;;;;;;;5097113;28;20067;-75
2023/02/01 11:47:52;;;;;;;6.40;3.00;;;;;;;;;;5109569;28;20043;-80
2023/02/01 11:50:42;;;;;;;6.63;3.13;;;;;;;;;;5091091;28;20063;-75
2023/02/01 11:53:54;;;;;;;8.38;3.13;;;;;;;;;;5109846;28;20044;-76
2023/02/01 11:56:36;;;;;;;4.07;2.63;;;;;;;;;;5109205;28;20050;-76
2023/02/01 11:59:18;;;;;;;15.95;3.50;;;;;;;;;;5106873;28;20043;-76
2023/02/01 12:02:11;;;;;;;5.97;2.83;;;;;;;;;;5108981;28;20044;-76
2023/02/01 12:05:02;;;;;;;5.18;2.67;;;;;;;;;;5108971;28;20160;-84
2023/02/01 12:08:09;;;;;;;7.70;2.78;;;;;;;;;;5108692;28;20047;-77
2023/02/01 12:11:05;;;;;;;10.98;2.90;;;;;;;;;;5108478;28;20048;-76
2023/02/01 12:13:57;;;;;;;7.28;3.13;;;;;;;;;;5108512;28;20073;-76
2023/02/01 12:16:30;;;;;;;8.05;2.95;;;;;;;;;;5108826;28;20043;-76
2023/02/01 12:19:09;;;;;;;3.95;2.78;;;;;;;;;;5107119;28;20059;-76
2023/02/01 12:21:55;;;;;;;5.22;2.17;;;;;;;;;;5108167;27;20062;-77
2023/02/01 12:24:57;;;;;;;7.30;2.20;;;;;;;;;;5106366;28;20387;-76
2023/02/01 12:27:49;;;;;;;3.72;2.58;;;;;;;;;;5108222;28;20047;-76
2023/02/01 12:30:50;;;;;;;4.70;2.72;;;;;;;;;;5107898;28;20047;-76
2023/02/01 12:33:51;;;;;;;7.65;2.47;;;;;;;;;;5107691;28;20040;-75
2023/02/01 12:36:46;;;;;;;5.25;2.63;;;;;;;;;;5108307;28;20050;-76
2023/02/01 12:39:30;;;;;;;6.53;2.33;;;;;;;;;;5108713;28;20051;-78
2023/02/01 12:42:15;;;;;;;8.13;2.33;;;;;;;;;;5108293;28;20051;-76
2023/02/01 12:44:57;;;;;;;6.00;2.33;;;;;;;;;;5107596;28;20044;-76
2023/02/01 12:48:07;;;;;;;5.45;2.35;;;;;;;;;;5107828;28;20508;-77
2023/02/01 12:50:54;;;;;;;5.90;2.47;;;;;;;;;;5008364;28;20472;-76
2023/02/01 12:53:33;;;;;;;5.00;2.25;;;;;;;;;;5024614;28;20049;-76
2023/02/01 12:56:09;;;;;;;7.13;2.47;;;;;;;;;;5077162;28;20089;-76
2023/02/01 12:58:52;;;;;;;9.45;2.70;;;;;;;;;;5107891;28;20054;-77
2023/02/01 13:01:41;;;;;;;3.30;2.25;;;;;;;;;;5107430;28;20070;-76
2023/02/01 13:04:17;;;;;;;5.38;2.40;;;;;;;;;;5107971;28;20125;-75
2023/02/01 13:07:16;;;;;;;4.32;2.70;;;;;;;;;;5107172;28;20490;-77
2023/02/01 13:10:06;;;;;;;8.32;2.80;;;;;;;;;;5107543;28;20044;-76
2023/02/01 13:13:00;;;;;;;5.65;2.35;;;;;;;;;;5107575;28;20039;-76
2023/02/01 13:15:59;;;;;;;5.28;2.95;;;;;;;;;;5107517;28;20048;-77
2023/02/01 13:18:37;;;;;;;5.80;2.08;;;;;;;;;;5107399;28;20054;-76
2023/02/01 13:21:18;;;;;;;6.70;2.15;;;;;;;;;;5106645;28;20046;-76
2023/02/01 13:23:50;;;;;;;3.72;2.17;;;;;;;;;;5104737;28;20071;-77
2023/02/01 13:26:21;;;;;;;8.73;2.47;;;;;;;;;;5107550;28;20537;-76
2023/02/01 13:29:00;;;;;;;8.43;2.20;;;;;;;;;;5107105;28;20435;-77
2023/02/01 13:32:02;;;;;;;4.78;2.72;;;;;;;;;;5107056;28;20048;-75
2023/02/01 13:34:54;;;;;;;5.40;2.63;;;;;;;;;;5107056;28;20043;-76
2023/02/01 13:37:45;;;;;;;7.28;2.72;;;;;;;;;;5107037;28;20057;-77
2023/02/01 13:40:30;;;;;;;7.82;2.63;;;;;;;;;;5107384;28;20039;-76
2023/02/01 13:43:26;;;;;;;7.18;2.80;;;;;;;;;;5105290;28;20071;-75
2023/02/01 13:46:02;;;;;;;5.95;2.55;;;;;;;;;;5107135;28;20043;-77
2023/02/01 13:48:47;;;;;;;5.95;2.83;;;;;;;;;;5107696;28;20050;-76
2023/02/01 13:51:49;;;;;;;5.10;2.58;;;;;;;;;;5104501;28;20133;-76
2023/02/01 13:54:38;;;;;;;13.43;2.83;;;;;;;;;;5105082;28;20514;-77
2023/02/01 13:57:31;;;;;;;6.68;2.53;;;;;;;;;;5106749;28;20509;-80
2023/02/01 14:00:24;;;;;;;4.95;2.72;;;;;;;;;;5106920;28;20070;-77
2023/02/01 14:03:00;;;;;;;10.38;2.78;;;;;;;;;;5106888;28;20490;-79
2023/02/01 14:05:34;;;;;;;3.65;2.65;;;;;;;;;;5107372;28;20039;-77
2023/02/01 14:08:10;;;;;;;6.18;2.40;;;;;;;;;;5107526;28;20052;-78
2023/02/01 14:10:52;;;;;;;4.53;2.50;;;;;;;;;;5110685;28;20051;-76
2023/02/01 14:13:38;;;;;;;4.57;2.60;;;;;;;;;;5110749;28;20050;-76
2023/02/01 14:16:17;;;;;;;4.07;2.60;;;;;;;;;;5110408;28;20047;-76
2023/02/01 14:18:50;;;;;;;4.65;2.55;;;;;;;;;;5110350;28;20047;-75
2023/02/01 14:21:35;;;;;;;4.82;2.38;;;;;;;;;;5110346;28;20043;-76
2023/02/01 14:24:09;;;;;;;5.22;2.88;;;;;;;;;;5110530;28;20048;-76
2023/02/01 14:26:45;;;;;;;3.25;2.80;;;;;;;;;;5110414;28;20055;-77
2023/02/01 14:29:15;;;;;;;3.63;2.05;;;;;;;;;;5110496;28;20475;-83
2023/02/01 14:32:02;;;;;;;5.03;2.53;;;;;;;;;;5110673;28;20044;-76
2023/02/01 14:34:47;;;;;;;5.07;2.58;;;;;;;;;;5110640;28;20036;-76
2023/02/01 14:37:24;;;;;;;7.97;2.42;;;;;;;;;;5110184;28;20048;-77
2023/02/01 14:40:00;;;;;;;8.63;2.50;;;;;;;;;;5110522;28;20504;-77
2023/02/01 14:42:47;;;;;;;6.18;2.53;;;;;;;;;;5110239;28;20062;-76
2023/02/01 14:48:16;;;;;;;4.88;2.20;;;;;;;;;;5110027;28;20040;-76
2023/02/01 14:50:49;;;;;;;7.03;2.67;;;;;;;;;;5108126;28;20047;-78
2023/02/01 14:53:36;;;;;;;4.85;2.70;;;;;;;;;;5110426;28;20070;-77
2023/02/01 14:56:20;;;;;;;7.18;2.30;;;;;;;;;;5110115;28;20044;-76
2023/02/01 14:59:15;;;;;;;5.25;3.00;;;;;;;;;;5109717;28;20506;-78
2023/02/01 15:01:56;;;;;;;3.85;2.63;;;;;;;;;;5109716;28;20047;-76
2023/02/01 15:04:28;;;;;;;4.75;2.47;;;;;;;;;;5109910;28;20673;-76
2023/02/01 15:07:07;;;;;;;7.13;2.72;;;;;;;;;;5109177;28;20044;-76
2023/02/01 15:09:44;;;;;;;4.47;2.55;;;;;;;;;;5109616;28;20498;-76
2023/02/01 15:12:30;;;;;;;3.80;2.70;;;;;;;;;;5107458;28;20056;-76
2023/02/01 15:15:18;;;;;;;4.53;2.75;;;;;;;;;;5107735;28;20059;-77
2023/02/01 15:17:53;;;;;;;4.68;2.70;;;;;;;;;;5110230;28;20528;-76
2023/02/01 15:20:28;;;;;;;10.50;2.95;;;;;;;;;;5109254;28;20051;-82
2023/02/01 15:23:05;;;;;;;5.38;2.83;;;;;;;;;;5107227;28;20048;-77
2023/02/01 15:25:38;;;;;;;3.03;2.58;;;;;;;;;;5109396;28;20054;-77
2023/02/01 15:28:14;;;;;;;3.83;2.83;;;;;;;;;;5109511;28;20055;-75
2023/02/01 15:31:01;;;;;;;5.47;2.80;;;;;;;;;;5108731;28;20047;-77
2023/02/01 15:33:32;;;;;;;3.63;2.60;;;;;;;;;;5109268;28;20518;-77
2023/02/01 15:36:09;;;;;;;6.40;2.67;;;;;;;;;;5109502;28;20054;-75
2023/02/01 15:38:44;;;;;;;5.60;2.55;;;;;;;;;;5109893;28;20055;-77
2023/02/01 15:41:30;;;;;;;6.40;2.53;;;;;;;;;;5109334;28;20051;-77
2023/02/01 15:44:01;;;;;;;9.65;2.72;;;;;;;;;;5109015;28;20062;-77
2023/02/01 15:46:45;;;;;;;4.95;2.63;;;;;;;;;;5108033;28;20048;-76
2023/02/01 15:49:24;;;;;;;3.55;2.33;;;;;;;;;;5109031;28;20510;-77
2023/02/01 15:51:57;;;;;;;8.93;2.85;;;;;;;;;;5108861;28;20395;-78
2023/02/01 15:54:30;;;;;;;4.63;2.78;;;;;;;;;;5108616;28;20055;-76
2023/02/01 15:57:03;;;;;;;5.68;2.78;;;;;;;;;;5108334;28;20051;-75
2023/02/01 15:59:45;;;;;;;4.85;2.67;;;;;;;;;;5107807;28;20058;-78
2023/02/01 16:02:33;;;;;;;7.82;3.00;;;;;;;;;;5109353;28;20481;-77
2023/02/01 16:05:06;;;;;;;3.88;2.83;;;;;;;;;;5108907;28;20470;-76
2023/02/01 16:07:39;;;;;;;4.57;2.90;;;;;;;;;;5109194;28;20048;-76